createdAt,value
2017-11-10T00:00:32.386Z,119.8
2017-11-10T00:01:33.138Z,116.3
2017-11-10T00:02:33.912Z,117.8
2017-11-10T00:03:34.647Z,123.6
2017-11-10T00:04:35.412Z,125.8
2017-11-10T00:05:36.150Z,124.2
2017-11-10T00:06:36.863Z,117.5
2017-11-10T00:07:37.704Z,126.3
2017-11-10T00:08:38.473Z,115.1
2017-11-10T00:09:39.189Z,116.1
2017-11-10T00:10:39.919Z,118.0
2017-11-10T00:11:40.712Z,119.2
2017-11-10T00:12:41.432Z,119.0
2017-11-10T00:13:42.202Z,121.8
2017-11-10T00:14:42.927Z,117.9
2017-11-10T00:15:43.654Z,120.8
2017-11-10T00:16:44.373Z,127.2
2017-11-10T00:17:45.093Z,113.3
2017-11-10T00:18:45.819Z,119.7
2017-11-10T00:19:46.603Z,117.8
2017-11-10T00:20:47.395Z,123.3
2017-11-10T00:21:48.124Z,120.7
2017-11-10T00:22:48.921Z,118.6
2017-11-10T00:23:49.656Z,115.1
2017-11-10T00:24:50.423Z,96.3
2017-11-10T00:25:51.196Z,114.8
2017-11-10T00:26:51.927Z,109.3
2017-11-10T00:27:52.720Z,111.3
2017-11-10T00:28:53.483Z,114.5
2017-11-10T00:29:54.231Z,113.5
2017-11-10T00:30:55.047Z,104.0
2017-11-10T00:31:55.853Z,119.8
2017-11-10T00:32:56.584Z,109.5
2017-11-10T00:33:57.323Z,109.7
2017-11-10T00:34:58.058Z,112.5
2017-11-10T00:35:59.081Z,117.5
2017-11-10T00:36:59.801Z,118.8
2017-11-10T00:38:00.533Z,124.8
2017-11-10T00:39:01.255Z,118.2
2017-11-10T00:40:01.989Z,122.6
2017-11-10T00:41:02.824Z,128.4
2017-11-10T00:42:03.530Z,113.2
2017-11-10T00:43:04.259Z,116.2
2017-11-10T00:44:04.997Z,110.8
2017-11-10T00:45:05.803Z,113.3
2017-11-10T00:46:06.892Z,119.3
2017-11-10T00:47:07.671Z,104.4
2017-11-10T00:48:08.405Z,126.0
2017-11-10T00:49:09.194Z,117.8
2017-11-10T00:50:09.932Z,114.0
2017-11-10T00:51:10.741Z,110.3
2017-11-10T00:52:11.468Z,104.6
2017-11-10T00:53:12.483Z,105.7
2017-11-10T00:54:13.211Z,112.7
2017-11-10T00:55:13.948Z,116.5
2017-11-10T00:56:14.661Z,102.7
2017-11-10T00:57:15.393Z,105.9
2017-11-10T00:58:16.173Z,103.4
2017-11-10T00:59:16.960Z,107.6
2017-11-10T01:00:17.742Z,99.8
2017-11-10T01:01:18.465Z,108.6
2017-11-10T01:02:19.193Z,109.6
2017-11-10T01:03:19.959Z,96.2
2017-11-10T01:04:20.682Z,97.2
2017-11-10T01:05:21.413Z,106.0
2017-11-10T01:06:22.149Z,95.0
2017-11-10T01:07:22.916Z,93.7
2017-11-10T01:08:23.734Z,109.7
2017-11-10T01:09:24.462Z,97.8
2017-11-10T01:10:25.207Z,101.9
2017-11-10T01:11:25.925Z,103.5
2017-11-10T01:12:26.657Z,95.6
2017-11-10T01:13:27.532Z,109.3
2017-11-10T01:14:28.253Z,101.0
2017-11-10T01:15:28.972Z,102.3
2017-11-10T01:16:29.693Z,93.8
2017-11-10T01:17:30.502Z,93.6
2017-11-10T01:18:31.283Z,86.1
2017-11-10T01:19:32.062Z,97.0
2017-11-10T01:20:32.792Z,96.6
2017-11-10T01:21:33.525Z,96.4
2017-11-10T01:22:34.302Z,90.4
2017-11-10T01:23:35.078Z,86.3
2017-11-10T01:24:35.828Z,89.4
2017-11-10T01:25:36.559Z,93.9
2017-11-10T01:26:37.347Z,92.0
2017-11-10T01:27:38.145Z,93.8
2017-11-10T01:28:38.917Z,90.1
2017-11-10T01:29:39.641Z,90.1
2017-11-10T01:30:40.374Z,135.6
2017-11-10T01:31:41.151Z,94.3
2017-11-10T01:32:41.861Z,96.6
2017-11-10T01:33:42.739Z,93.8
2017-11-10T01:34:43.455Z,110.8
2017-11-10T01:35:44.180Z,88.6
2017-11-10T01:36:44.898Z,92.6
2017-11-10T01:37:45.611Z,90.7
2017-11-10T01:38:46.339Z,94.7
2017-11-10T01:39:47.062Z,92.8
2017-11-10T01:40:47.787Z,88.8
2017-11-10T01:41:48.957Z,93.6
2017-11-10T01:42:49.684Z,91.0
2017-11-10T01:43:50.467Z,101.8
2017-11-10T01:44:51.192Z,81.3
2017-11-10T01:45:51.935Z,93.0
2017-11-10T01:46:52.801Z,83.9
2017-11-10T01:47:53.529Z,97.0
2017-11-10T01:48:54.252Z,88.2
2017-11-10T01:49:54.973Z,88.6
2017-11-10T01:50:55.692Z,91.1
2017-11-10T01:51:56.405Z,80.4
2017-11-10T01:52:57.140Z,86.7
2017-11-10T01:53:57.972Z,84.6
2017-11-10T01:54:58.709Z,81.1
2017-11-10T01:55:59.503Z,87.9
2017-11-10T01:57:00.239Z,93.3
2017-11-10T01:58:00.968Z,92.6
2017-11-10T01:59:01.846Z,103.9
2017-11-10T02:00:02.575Z,96.1
2017-11-10T02:01:03.295Z,96.9
2017-11-10T02:02:04.013Z,96.3
2017-11-10T02:03:04.754Z,98.2
2017-11-10T02:04:05.622Z,92.8
2017-11-10T02:05:06.342Z,95.7
2017-11-10T02:06:07.064Z,94.5
2017-11-10T02:07:07.811Z,86.5
2017-11-10T02:08:08.548Z,88.0
2017-11-10T02:09:09.665Z,86.9
2017-11-10T02:10:10.391Z,85.0
2017-11-10T02:11:11.133Z,78.5
2017-11-10T02:12:11.934Z,78.4
2017-11-10T02:13:12.653Z,81.4
2017-11-10T02:14:13.482Z,83.8
2017-11-10T02:15:14.197Z,80.6
2017-11-10T02:16:15.020Z,76.3
2017-11-10T02:17:15.777Z,76.5
2017-11-10T02:18:16.538Z,82.3
2017-11-10T02:19:17.355Z,81.8
2017-11-10T02:20:18.082Z,73.6
2017-11-10T02:21:18.822Z,82.7
2017-11-10T02:22:19.587Z,82.7
2017-11-10T02:23:20.316Z,76.7
2017-11-10T02:24:21.134Z,91.8
2017-11-10T02:25:21.923Z,90.1
2017-11-10T02:26:22.634Z,86.8
2017-11-10T02:27:23.445Z,85.1
2017-11-10T02:28:24.176Z,83.4
2017-11-10T02:29:25.024Z,87.4
2017-11-10T02:30:25.794Z,81.9
2017-11-10T02:31:26.601Z,81.9
2017-11-10T02:32:27.360Z,83.9
2017-11-10T02:33:28.069Z,80.5
2017-11-10T02:34:28.806Z,89.1
2017-11-10T02:35:29.536Z,82.9
2017-11-10T02:36:30.322Z,86.7
2017-11-10T02:37:31.050Z,92.9
2017-11-10T02:38:31.827Z,81.2
2017-11-10T02:39:32.663Z,83.5
2017-11-10T02:40:33.393Z,82.1
2017-11-10T02:41:34.128Z,88.8
2017-11-10T02:42:34.892Z,96.2
2017-11-10T02:43:35.611Z,91.7
2017-11-10T02:44:36.330Z,94.0
2017-11-10T02:45:37.064Z,108.5
2017-11-10T02:46:37.793Z,106.4
2017-11-10T02:47:38.512Z,110.4
2017-11-10T02:48:39.244Z,118.8
2017-11-10T02:49:40.393Z,113.5
2017-11-10T02:50:41.124Z,107.8
2017-11-10T02:51:41.844Z,112.2
2017-11-10T02:52:42.571Z,112.2
2017-11-10T02:53:43.301Z,108.0
2017-11-10T02:54:44.433Z,108.3
2017-11-10T02:55:45.159Z,105.5
2017-11-10T02:56:45.916Z,117.0
2017-11-10T02:57:46.705Z,112.4
2017-11-10T02:58:47.436Z,102.9
2017-11-10T02:59:48.263Z,102.9
2017-11-10T03:00:48.990Z,107.5
2017-11-10T03:01:49.799Z,102.6
2017-11-10T03:02:50.532Z,108.9
2017-11-10T03:03:51.263Z,105.0
2017-11-10T03:04:52.146Z,100.3
2017-11-10T03:05:52.820Z,106.6
2017-11-10T03:06:53.573Z,101.1
2017-11-10T03:07:54.292Z,97.6
2017-11-10T03:08:55.023Z,99.0
2017-11-10T03:09:56.059Z,108.0
2017-11-10T03:10:56.844Z,101.4
2017-11-10T03:11:57.674Z,137.6
2017-11-10T03:12:58.389Z,105.1
2017-11-10T03:13:59.112Z,106.3
2017-11-10T03:14:59.934Z,111.5
2017-11-10T03:16:00.656Z,108.3
2017-11-10T03:17:01.373Z,106.0
2017-11-10T03:18:02.098Z,105.9
2017-11-10T03:19:02.802Z,104.0
2017-11-10T03:20:03.633Z,110.1
2017-11-10T03:21:04.442Z,109.6
2017-11-10T03:22:05.168Z,108.0
2017-11-10T03:23:05.974Z,110.6
2017-11-10T03:24:06.785Z,114.9
2017-11-10T03:25:07.980Z,115.3
2017-11-10T03:26:08.711Z,125.8
2017-11-10T03:27:09.482Z,118.0
2017-11-10T03:28:10.205Z,107.6
2017-11-10T03:29:11.097Z,108.0
2017-11-10T03:30:11.905Z,112.6
2017-11-10T03:31:12.642Z,121.6
2017-11-10T03:32:13.431Z,94.5
2017-11-10T03:33:14.171Z,108.5
2017-11-10T03:34:14.916Z,104.2
2017-11-10T03:35:15.994Z,96.3
2017-11-10T03:36:16.727Z,92.9
2017-11-10T03:37:17.442Z,94.2
2017-11-10T03:38:18.165Z,93.4
2017-11-10T03:39:18.916Z,100.8
2017-11-10T03:40:19.643Z,101.1
2017-11-10T03:41:20.381Z,88.8
2017-11-10T03:42:21.202Z,93.7
2017-11-10T03:43:21.921Z,93.0
2017-11-10T03:44:22.650Z,97.3
2017-11-10T03:45:23.383Z,99.2
2017-11-10T03:46:24.107Z,99.6
2017-11-10T03:47:24.892Z,103.5
2017-11-10T03:48:25.616Z,101.3
2017-11-10T03:49:26.382Z,106.0
2017-11-10T03:50:27.192Z,105.7
2017-11-10T03:51:27.924Z,104.1
2017-11-10T03:52:28.735Z,113.5
2017-11-10T03:53:29.452Z,113.9
2017-11-10T03:54:30.171Z,123.1
2017-11-10T03:55:30.916Z,113.9
2017-11-10T03:56:31.693Z,113.2
2017-11-10T03:57:32.503Z,123.3
2017-11-10T03:58:33.297Z,121.8
2017-11-10T03:59:34.029Z,120.3
2017-11-10T04:00:34.752Z,112.3
2017-11-10T04:01:35.475Z,124.1
2017-11-10T04:02:36.377Z,125.7
2017-11-10T04:03:37.108Z,124.7
2017-11-10T04:04:37.897Z,134.7
2017-11-10T04:05:38.669Z,132.3
2017-11-10T04:06:39.439Z,147.2
2017-11-10T04:07:40.216Z,134.6
2017-11-10T04:08:41.014Z,132.9
2017-11-10T04:09:41.735Z,138.0
2017-11-10T04:10:42.458Z,148.4
2017-11-10T04:11:43.176Z,144.8
2017-11-10T04:12:44.202Z,144.9
2017-11-10T04:13:44.938Z,157.0
2017-11-10T04:14:45.671Z,157.6
2017-11-10T04:15:46.457Z,142.3
2017-11-10T04:16:47.186Z,167.2
2017-11-10T04:17:48.007Z,163.6
2017-11-10T04:18:48.737Z,165.8
2017-11-10T04:19:49.473Z,158.6
2017-11-10T04:20:50.286Z,148.9
2017-11-10T04:21:51.019Z,168.3
2017-11-10T04:22:51.825Z,163.1
2017-11-10T04:23:52.542Z,176.4
2017-11-10T04:24:53.332Z,162.1
2017-11-10T04:25:54.059Z,178.3
2017-11-10T04:26:54.860Z,181.4
2017-11-10T04:27:55.587Z,169.1
2017-11-10T04:28:56.311Z,167.9
2017-11-10T04:29:57.106Z,174.6
2017-11-10T04:30:57.944Z,179.6
2017-11-10T04:31:58.677Z,178.9
2017-11-10T04:32:59.408Z,172.8
2017-11-10T04:34:00.136Z,177.8
2017-11-10T04:35:00.869Z,181.7
2017-11-10T04:36:01.978Z,192.7
2017-11-10T04:37:02.762Z,185.6
2017-11-10T04:38:03.542Z,176.2
2017-11-10T04:39:04.289Z,192.9
2017-11-10T04:40:05.017Z,184.6
2017-11-10T04:41:05.877Z,177.9
2017-11-10T04:42:06.599Z,186.3
2017-11-10T04:43:07.399Z,194.3
2017-11-10T04:44:08.202Z,218.5
2017-11-10T04:45:08.922Z,196.1
2017-11-10T04:46:09.832Z,186.0
2017-11-10T04:47:10.632Z,194.2
2017-11-10T04:48:11.361Z,203.3
2017-11-10T04:49:12.178Z,200.2
2017-11-10T04:50:12.956Z,191.0
2017-11-10T04:51:13.730Z,190.3
2017-11-10T04:52:14.514Z,203.4
2017-11-10T04:53:15.301Z,192.9
2017-11-10T04:54:16.031Z,188.6
2017-11-10T04:55:16.761Z,192.8
2017-11-10T04:56:17.529Z,195.3
2017-11-10T04:57:18.304Z,187.3
2017-11-10T04:58:19.099Z,203.5
2017-11-10T04:59:19.760Z,201.0
2017-11-10T05:00:20.492Z,188.6
2017-11-10T05:01:21.279Z,196.5
2017-11-10T05:02:22.021Z,202.2
2017-11-10T05:03:22.810Z,208.3
2017-11-10T05:04:23.532Z,204.5
2017-11-10T05:05:24.264Z,213.1
2017-11-10T05:06:24.981Z,203.3
2017-11-10T05:07:26.007Z,223.0
2017-11-10T05:08:26.731Z,187.2
2017-11-10T05:09:27.511Z,212.7
2017-11-10T05:10:28.242Z,203.3
2017-11-10T05:11:29.058Z,209.5
2017-11-10T05:12:30.315Z,217.1
2017-11-10T05:13:31.057Z,198.4
2017-11-10T05:14:31.830Z,203.4
2017-11-10T05:15:32.642Z,205.5
2017-11-10T05:16:33.414Z,218.2
2017-11-10T05:17:34.263Z,221.5
2017-11-10T05:18:34.986Z,226.5
2017-11-10T05:19:35.716Z,200.6
2017-11-10T05:20:36.440Z,213.9
2017-11-10T05:21:37.168Z,225.6
2017-11-10T05:22:37.999Z,237.5
2017-11-10T05:23:38.739Z,211.1
2017-11-10T05:24:39.522Z,221.6
2017-11-10T05:25:40.330Z,227.6
2017-11-10T05:26:41.068Z,221.0
2017-11-10T05:27:41.874Z,224.6
2017-11-10T05:28:42.652Z,203.2
2017-11-10T05:29:43.444Z,206.6
2017-11-10T05:30:44.251Z,227.8
2017-11-10T05:31:44.979Z,240.3
2017-11-10T05:32:45.824Z,194.9
2017-11-10T05:33:46.611Z,221.0
2017-11-10T05:34:47.344Z,210.9
2017-11-10T05:35:48.071Z,225.0
2017-11-10T05:36:48.786Z,221.9
2017-11-10T05:37:49.812Z,222.8
2017-11-10T05:38:50.603Z,233.2
2017-11-10T05:39:51.410Z,262.5
2017-11-10T05:40:52.141Z,242.1
2017-11-10T05:41:52.938Z,236.1
2017-11-10T05:42:53.754Z,222.3
2017-11-10T05:43:54.486Z,235.9
2017-11-10T05:44:55.292Z,239.2
2017-11-10T05:45:56.065Z,250.0
2017-11-10T05:46:56.849Z,252.6
2017-11-10T05:47:58.034Z,258.0
2017-11-10T05:48:58.811Z,218.7
2017-11-10T05:49:59.545Z,231.9
2017-11-10T05:51:00.337Z,240.5
2017-11-10T05:52:01.114Z,227.4
2017-11-10T05:53:01.991Z,263.5
2017-11-10T05:54:02.750Z,224.7
2017-11-10T05:55:03.487Z,242.2
2017-11-10T05:56:04.217Z,238.3
2017-11-10T05:57:04.989Z,224.5
2017-11-10T05:58:05.808Z,207.6
2017-11-10T05:59:06.540Z,243.8
2017-11-10T06:00:07.274Z,227.8
2017-11-10T06:01:08.045Z,232.3
2017-11-10T06:02:08.770Z,221.0
2017-11-10T06:03:09.613Z,238.4
2017-11-10T06:04:10.340Z,241.1
2017-11-10T06:05:11.070Z,266.8
2017-11-10T06:06:11.800Z,231.4
2017-11-10T06:07:12.516Z,212.4
2017-11-10T06:08:13.304Z,223.2
2017-11-10T06:09:14.124Z,201.0
2017-11-10T06:10:14.905Z,213.4
2017-11-10T06:11:15.630Z,215.2
2017-11-10T06:12:16.351Z,217.0
2017-11-10T06:13:17.072Z,214.9
2017-11-10T06:14:17.861Z,223.5
2017-11-10T06:15:18.630Z,223.0
2017-11-10T06:16:19.420Z,215.0
2017-11-10T06:17:20.158Z,208.2
2017-11-10T06:18:20.881Z,209.8
2017-11-10T06:19:21.619Z,206.3
2017-11-10T06:20:22.442Z,197.5
2017-11-10T06:21:23.170Z,222.0
2017-11-10T06:22:23.905Z,200.5
2017-11-10T06:23:24.677Z,249.0
2017-11-10T06:24:25.406Z,208.3
2017-11-10T06:25:26.220Z,212.4
2017-11-10T06:26:27.011Z,195.5
2017-11-10T06:27:27.737Z,200.2
2017-11-10T06:28:28.461Z,198.1
2017-11-10T06:29:29.184Z,196.0
2017-11-10T06:30:30.038Z,191.1
2017-11-10T06:31:30.753Z,197.7
2017-11-10T06:32:31.561Z,180.3
2017-11-10T06:33:32.287Z,197.2
2017-11-10T06:34:33.017Z,189.3
2017-11-10T06:35:33.881Z,205.5
2017-11-10T06:36:34.610Z,186.9
2017-11-10T06:37:35.342Z,198.0
2017-11-10T06:38:36.072Z,192.2
2017-11-10T06:39:36.880Z,200.8
2017-11-10T06:40:37.715Z,191.2
2017-11-10T06:41:38.488Z,184.8
2017-11-10T06:42:39.297Z,207.1
2017-11-10T06:43:40.026Z,208.4
2017-11-10T06:44:40.753Z,203.9
2017-11-10T06:45:41.641Z,193.1
2017-11-10T06:46:42.383Z,195.5
2017-11-10T06:47:43.183Z,199.3
2017-11-10T06:48:43.990Z,189.8
2017-11-10T06:49:44.720Z,190.2
2017-11-10T06:50:45.500Z,181.4
2017-11-10T06:51:46.251Z,191.4
2017-11-10T06:52:46.988Z,194.5
2017-11-10T06:53:47.702Z,199.5
2017-11-10T06:54:48.425Z,191.2
2017-11-10T06:55:49.163Z,190.5
2017-11-10T06:56:49.951Z,190.2
2017-11-10T06:57:50.710Z,191.7
2017-11-10T06:58:51.472Z,187.8
2017-11-10T06:59:52.204Z,188.8
2017-11-10T07:00:53.012Z,178.9
2017-11-10T07:01:53.741Z,194.0
2017-11-10T07:02:54.571Z,184.2
2017-11-10T07:03:55.291Z,202.8
2017-11-10T07:04:56.018Z,185.5
2017-11-10T07:05:56.732Z,187.6
2017-11-10T07:06:57.467Z,181.5
2017-11-10T07:07:58.315Z,184.0
2017-11-10T07:08:59.074Z,174.8
2017-11-10T07:09:59.834Z,174.0
2017-11-10T07:11:00.633Z,172.1
2017-11-10T07:12:01.369Z,182.7
2017-11-10T07:13:02.216Z,168.3
2017-11-10T07:14:02.983Z,198.4
2017-11-10T07:15:03.719Z,189.8
2017-11-10T07:16:04.482Z,176.5
2017-11-10T07:17:05.221Z,177.7
2017-11-10T07:18:06.107Z,180.6
2017-11-10T07:19:06.830Z,191.8
2017-11-10T07:20:07.565Z,177.0
2017-11-10T07:21:08.341Z,191.8
2017-11-10T07:22:09.060Z,186.5
2017-11-10T07:23:09.897Z,194.9
2017-11-10T07:24:10.634Z,186.2
2017-11-10T07:25:11.420Z,170.5
2017-11-10T07:26:12.201Z,184.2
2017-11-10T07:27:12.937Z,179.8
2017-11-10T07:28:13.730Z,178.3
2017-11-10T07:29:14.531Z,189.1
2017-11-10T07:30:15.307Z,178.0
2017-11-10T07:31:16.092Z,179.4
2017-11-10T07:32:16.821Z,184.6
2017-11-10T07:33:17.722Z,181.7
2017-11-10T07:34:18.451Z,177.2
2017-11-10T07:35:19.181Z,181.0
2017-11-10T07:36:19.914Z,190.6
2017-11-10T07:37:20.646Z,179.2
2017-11-10T07:38:21.373Z,162.7
2017-11-10T07:39:22.102Z,172.1
2017-11-10T07:40:22.833Z,174.4
2017-11-10T07:41:23.565Z,176.8
2017-11-10T07:42:24.334Z,171.3
2017-11-10T07:43:25.063Z,163.6
2017-11-10T07:44:26.221Z,173.1
2017-11-10T07:45:26.953Z,177.6
2017-11-10T07:46:27.758Z,174.5
2017-11-10T07:47:28.554Z,161.4
2017-11-10T07:48:29.349Z,169.8
2017-11-10T07:49:30.824Z,162.1
2017-11-10T07:50:31.622Z,169.4
2017-11-10T07:51:32.348Z,167.5
2017-11-10T07:52:33.152Z,167.5
2017-11-10T07:53:33.881Z,160.6
2017-11-10T07:54:34.652Z,160.6
2017-11-10T07:55:35.387Z,173.6
2017-11-10T07:56:36.147Z,161.5
2017-11-10T07:57:36.959Z,151.0
2017-11-10T07:58:37.685Z,172.8
2017-11-10T07:59:38.497Z,174.1
2017-11-10T08:00:39.247Z,171.5
2017-11-10T08:01:40.045Z,156.2
2017-11-10T08:02:40.825Z,165.9
2017-11-10T08:03:41.621Z,172.6
2017-11-10T08:04:42.446Z,155.1
2017-11-10T08:05:43.176Z,166.8
2017-11-10T08:06:43.911Z,162.8
2017-11-10T08:07:44.642Z,155.6
2017-11-10T08:08:45.372Z,166.3
2017-11-10T08:09:46.166Z,166.7
2017-11-10T08:10:46.952Z,153.5
2017-11-10T08:11:47.684Z,154.6
2017-11-10T08:12:48.432Z,144.4
2017-11-10T08:13:49.133Z,139.2
2017-11-10T08:14:49.850Z,148.0
2017-11-10T08:15:50.575Z,155.7
2017-11-10T08:16:51.379Z,150.4
2017-11-10T08:17:52.131Z,147.9
2017-11-10T08:18:52.872Z,157.7
2017-11-10T08:19:53.618Z,139.5
2017-11-10T08:20:54.334Z,138.5
2017-11-10T08:21:55.113Z,153.2
2017-11-10T08:22:55.841Z,142.5
2017-11-10T08:23:56.564Z,137.5
2017-11-10T08:24:57.634Z,137.3
2017-11-10T08:25:58.432Z,134.4
2017-11-10T08:26:59.161Z,116.9
2017-11-10T08:27:59.884Z,110.2
2017-11-10T08:29:00.603Z,113.6
2017-11-10T08:30:01.641Z,95.3
2017-11-10T08:31:02.370Z,106.4
2017-11-10T08:32:03.102Z,106.0
2017-11-10T08:33:03.832Z,101.1
2017-11-10T08:34:04.564Z,101.1
2017-11-10T08:35:05.400Z,104.8
2017-11-10T08:36:06.129Z,105.2
2017-11-10T08:37:06.856Z,106.9
2017-11-10T08:38:07.641Z,108.1
2017-11-10T08:39:08.378Z,113.5
2017-11-10T08:40:09.463Z,110.2
2017-11-10T08:41:10.251Z,109.9
2017-11-10T08:42:10.993Z,124.0
2017-11-10T08:43:11.719Z,123.0
2017-11-10T08:44:12.452Z,129.7
2017-11-10T08:45:13.171Z,138.2
2017-11-10T08:46:13.972Z,129.4
2017-11-10T08:47:14.704Z,131.5
2017-11-10T08:48:15.512Z,137.3
2017-11-10T08:49:16.255Z,159.3
2017-11-10T08:50:16.982Z,162.3
2017-11-10T08:51:17.765Z,148.5
2017-11-10T08:52:18.574Z,150.9
2017-11-10T08:53:19.296Z,147.5
2017-11-10T08:54:20.036Z,166.4
2017-11-10T08:55:20.834Z,157.4
2017-11-10T08:56:21.753Z,154.3
2017-11-10T08:57:22.463Z,161.0
2017-11-10T08:58:23.192Z,180.6
2017-11-10T08:59:23.930Z,177.2
2017-11-10T09:00:24.723Z,175.6
2017-11-10T09:01:25.572Z,165.4
2017-11-10T09:02:26.314Z,168.5
2017-11-10T09:03:27.074Z,179.2
2017-11-10T09:04:27.883Z,173.8
2017-11-10T09:05:28.621Z,160.8
2017-11-10T09:06:29.405Z,166.6
2017-11-10T09:07:30.224Z,161.3
2017-11-10T09:08:31.412Z,150.8
2017-11-10T09:09:32.167Z,162.4
2017-11-10T09:10:32.964Z,160.5
2017-11-10T09:11:33.885Z,167.4
2017-11-10T09:12:34.765Z,172.6
2017-11-10T09:13:36.306Z,152.3
2017-11-10T09:14:38.260Z,163.9
2017-11-10T09:15:39.062Z,161.0
2017-11-10T09:16:40.481Z,173.2
2017-11-10T09:17:41.609Z,164.2
2017-11-10T09:18:42.877Z,162.0
2017-11-10T09:19:44.199Z,177.8
2017-11-10T09:20:45.042Z,174.7
2017-11-10T09:21:45.842Z,165.9
2017-11-10T09:22:47.379Z,152.8
2017-11-10T09:23:48.354Z,159.8
2017-11-10T09:24:49.208Z,142.8
2017-11-10T09:25:50.018Z,152.6
2017-11-10T09:26:50.957Z,141.2
2017-11-10T09:27:51.781Z,149.4
2017-11-10T09:28:53.517Z,152.4
2017-11-10T09:29:54.316Z,139.6
2017-11-10T09:30:55.107Z,143.6
2017-11-10T09:31:56.596Z,140.5
2017-11-10T09:32:57.476Z,137.7
2017-11-10T09:33:58.662Z,134.1
2017-11-10T09:34:59.444Z,137.7
2017-11-10T09:36:00.248Z,135.2
2017-11-10T09:37:01.129Z,126.2
2017-11-10T09:38:01.907Z,119.8
2017-11-10T09:39:02.822Z,132.4
2017-11-10T09:40:03.788Z,126.3
2017-11-10T09:41:04.577Z,120.2
2017-11-10T09:42:05.375Z,120.2
2017-11-10T09:43:06.771Z,109.4
2017-11-10T09:44:07.482Z,110.8
2017-11-10T09:45:08.229Z,114.1
2017-11-10T09:46:08.947Z,109.3
2017-11-10T09:47:09.735Z,110.5
2017-11-10T09:48:10.542Z,104.5
2017-11-10T09:49:11.626Z,111.9
2017-11-10T09:50:12.397Z,105.2
2017-11-10T09:51:13.131Z,104.6
2017-11-10T09:52:13.857Z,109.1
2017-11-10T09:53:14.581Z,107.7
2017-11-10T09:54:15.304Z,97.6
2017-11-10T09:55:16.037Z,103.6
2017-11-10T09:56:16.936Z,99.7
2017-11-10T09:57:17.740Z,88.6
2017-11-10T09:58:18.538Z,89.2
2017-11-10T09:59:19.266Z,84.2
2017-11-10T10:00:20.000Z,84.1
2017-11-10T10:01:22.691Z,93.1
2017-11-10T10:02:23.482Z,95.1
2017-11-10T10:03:24.205Z,87.9
2017-11-10T10:04:24.934Z,87.5
2017-11-10T10:05:25.744Z,81.5
2017-11-10T10:06:26.780Z,76.3
2017-11-10T10:07:27.517Z,76.0
2017-11-10T10:08:28.292Z,70.9
2017-11-10T10:09:29.026Z,69.4
2017-11-10T10:10:29.789Z,65.4
2017-11-10T10:11:30.904Z,75.4
2017-11-10T10:12:31.713Z,75.7
2017-11-10T10:13:32.441Z,72.6
2017-11-10T10:14:33.175Z,70.6
2017-11-10T10:15:33.966Z,67.3
2017-11-10T10:16:34.830Z,68.4
2017-11-10T10:17:35.593Z,70.3
2017-11-10T10:18:36.327Z,73.7
2017-11-10T10:19:37.119Z,70.9
2017-11-10T10:20:37.826Z,75.0
2017-11-10T10:21:38.846Z,62.1
2017-11-10T10:22:39.574Z,66.2
2017-11-10T10:23:40.375Z,77.7
2017-11-10T10:24:41.187Z,70.0
2017-11-10T10:25:41.982Z,70.6
2017-11-10T10:26:42.711Z,69.9
2017-11-10T10:27:43.448Z,69.9
2017-11-10T10:28:44.241Z,66.4
2017-11-10T10:29:45.042Z,69.1
2017-11-10T10:30:45.790Z,79.2
2017-11-10T10:31:46.918Z,72.9
2017-11-10T10:32:47.702Z,66.8
2017-11-10T10:33:48.432Z,68.5
2017-11-10T10:34:49.207Z,70.5
2017-11-10T10:35:49.993Z,68.8
2017-11-10T10:36:50.823Z,72.5
2017-11-10T10:37:51.626Z,70.2
2017-11-10T10:38:52.361Z,69.2
2017-11-10T10:39:53.094Z,62.8
2017-11-10T10:40:53.896Z,70.8
2017-11-10T10:41:54.713Z,59.1
2017-11-10T10:42:55.484Z,64.3
2017-11-10T10:43:56.292Z,67.0
2017-11-10T10:44:57.027Z,70.6
2017-11-10T10:45:58.154Z,62.7
2017-11-10T10:46:59.124Z,65.5
2017-11-10T10:47:59.857Z,67.5
2017-11-10T10:49:00.592Z,66.8
2017-11-10T10:50:01.332Z,63.6
2017-11-10T10:51:02.123Z,63.7
2017-11-10T10:52:02.902Z,57.6
2017-11-10T10:53:03.654Z,61.0
2017-11-10T10:54:04.411Z,62.3
2017-11-10T10:55:05.132Z,61.1
2017-11-10T10:56:06.084Z,57.1
2017-11-10T10:57:06.789Z,60.5
2017-11-10T10:58:07.486Z,66.8
2017-11-10T10:59:08.257Z,63.0
2017-11-10T11:00:08.983Z,59.6
2017-11-10T11:01:09.754Z,59.0
2017-11-10T11:02:10.484Z,69.7
2017-11-10T11:03:11.273Z,67.1
2017-11-10T11:04:12.073Z,64.2
2017-11-10T11:05:12.884Z,67.5
2017-11-10T11:06:13.711Z,71.1
2017-11-10T11:07:14.442Z,68.6
2017-11-10T11:08:15.171Z,70.2
2017-11-10T11:09:15.906Z,68.7
2017-11-10T11:10:16.717Z,73.6
2017-11-10T11:11:17.899Z,72.8
2017-11-10T11:12:18.682Z,68.1
2017-11-10T11:13:19.481Z,69.9
2017-11-10T11:14:20.214Z,73.6
2017-11-10T11:15:21.013Z,67.8
2017-11-10T11:16:21.804Z,74.5
2017-11-10T11:17:22.594Z,71.8
2017-11-10T11:18:23.342Z,75.0
2017-11-10T11:19:24.224Z,67.3
2017-11-10T11:20:24.982Z,74.0
2017-11-10T11:21:25.772Z,75.3
2017-11-10T11:22:26.502Z,69.6
2017-11-10T11:23:27.246Z,69.9
2017-11-10T11:24:28.079Z,70.5
2017-11-10T11:25:28.806Z,66.1
2017-11-10T11:26:29.623Z,67.7
2017-11-10T11:27:30.356Z,60.1
2017-11-10T11:28:31.163Z,64.0
2017-11-10T11:29:31.897Z,65.5
2017-11-10T11:30:32.680Z,63.2
2017-11-10T11:31:33.453Z,63.1
2017-11-10T11:32:34.183Z,66.2
2017-11-10T11:33:34.920Z,60.1
2017-11-10T11:34:35.707Z,56.3
2017-11-10T11:35:36.487Z,53.8
2017-11-10T11:36:37.314Z,53.8
2017-11-10T11:37:38.114Z,44.1
2017-11-10T11:38:38.846Z,54.7
2017-11-10T11:39:39.572Z,49.7
2017-11-10T11:40:40.306Z,51.6
2017-11-10T11:41:41.192Z,53.4
2017-11-10T11:42:42.114Z,50.1
2017-11-10T11:43:42.826Z,52.9
2017-11-10T11:44:43.618Z,46.4
2017-11-10T11:45:45.368Z,52.3
2017-11-10T11:46:47.897Z,52.3
2017-11-10T11:47:48.904Z,57.5
2017-11-10T11:48:50.858Z,52.7
2017-11-10T11:49:52.341Z,57.0
2017-11-10T11:50:53.453Z,59.2
2017-11-10T11:51:54.207Z,56.3
2017-11-10T11:52:54.995Z,63.3
2017-11-10T11:53:55.761Z,58.7
2017-11-10T11:54:56.490Z,66.1
2017-11-10T11:55:57.224Z,66.5
2017-11-10T11:56:58.033Z,69.5
2017-11-10T11:57:58.762Z,74.8
2017-11-10T11:58:59.601Z,74.0
2017-11-10T12:00:00.337Z,78.5
2017-11-10T12:01:01.150Z,76.1
2017-11-10T12:02:01.903Z,70.1
2017-11-10T12:03:02.657Z,76.3
2017-11-10T12:04:03.432Z,86.8
2017-11-10T12:05:04.164Z,83.3
2017-11-10T12:06:04.976Z,72.6
2017-11-10T12:07:05.751Z,79.5
2017-11-10T12:08:06.481Z,80.6
2017-11-10T12:09:07.212Z,77.0
2017-11-10T12:10:07.967Z,87.0
2017-11-10T12:11:08.771Z,79.1
2017-11-10T12:12:09.497Z,81.7
2017-11-10T12:13:10.278Z,77.6
2017-11-10T12:14:11.412Z,79.9
2017-11-10T12:15:12.146Z,80.2
2017-11-10T12:16:12.954Z,82.8
2017-11-10T12:17:13.762Z,88.7
2017-11-10T12:18:14.495Z,86.5
2017-11-10T12:19:15.272Z,86.6
2017-11-10T12:20:16.002Z,95.2
2017-11-10T12:21:16.731Z,91.4
2017-11-10T12:22:17.517Z,87.7
2017-11-10T12:23:18.312Z,89.3
2017-11-10T12:24:19.048Z,87.1
2017-11-10T12:25:19.794Z,90.5
2017-11-10T12:26:20.561Z,103.6
2017-11-10T12:27:21.377Z,94.6
2017-11-10T12:28:22.156Z,92.4
2017-11-10T12:29:22.933Z,95.2
2017-11-10T12:30:23.675Z,91.0
2017-11-10T12:31:24.441Z,98.5
2017-11-10T12:32:25.188Z,87.7
2017-11-10T12:33:25.907Z,97.0
2017-11-10T12:34:26.638Z,95.1
2017-11-10T12:35:27.363Z,95.1
2017-11-10T12:36:28.101Z,99.2
2017-11-10T12:37:28.833Z,95.4
2017-11-10T12:38:29.622Z,94.2
2017-11-10T12:39:30.359Z,102.4
2017-11-10T12:40:31.244Z,94.6
2017-11-10T12:41:31.973Z,99.2
2017-11-10T12:42:32.716Z,97.7
2017-11-10T12:43:33.493Z,102.4
2017-11-10T12:44:34.292Z,95.6
2017-11-10T12:45:35.072Z,94.0
2017-11-10T12:46:35.804Z,101.2
2017-11-10T12:47:36.537Z,95.7
2017-11-10T12:48:37.372Z,94.2
2017-11-10T12:49:38.105Z,93.2
2017-11-10T12:50:39.005Z,103.8
2017-11-10T12:51:39.751Z,105.0
2017-11-10T12:52:40.494Z,100.8
2017-11-10T12:53:41.282Z,100.3
2017-11-10T12:54:42.013Z,102.2
2017-11-10T12:55:43.100Z,105.6
2017-11-10T12:56:43.905Z,104.8
2017-11-10T12:57:44.701Z,107.3
2017-11-10T12:58:45.432Z,110.9
2017-11-10T12:59:46.173Z,96.4
2017-11-10T13:00:47.210Z,103.4
2017-11-10T13:01:47.956Z,105.8
2017-11-10T13:02:48.733Z,107.1
2017-11-10T13:03:49.537Z,109.1
2017-11-10T13:04:50.257Z,105.0
2017-11-10T13:05:51.330Z,89.5
2017-11-10T13:06:52.121Z,97.2
2017-11-10T13:07:52.916Z,92.5
2017-11-10T13:08:53.634Z,96.0
2017-11-10T13:09:54.373Z,102.0
2017-11-10T13:10:55.193Z,98.3
2017-11-10T13:11:55.925Z,106.7